WetterOnline ( https://www.wetteronline.at )

Wetter aktuell Der Rennsteig (in 900m)

Aktuelles Wetter: Schmücke (948m)

6-stündlich | Neueste Meldungen
Ortszeit Temperatur Wetter
Mo, 14.10. 8:00 11.7° C fast wolkenlos
Mo, 14.10. 2:00 13.0° C wolkenlos
So, 13.10. 20:00 16.0° C wolkenlos
So, 13.10. 14:00 17.4° C wolkig
So, 13.10. 8:00 11.1° C bedeckt
So, 13.10. 2:00 12.1° C fast wolkenlos
Sa, 12.10. 20:00 12.5° C bewölkt
Sa, 12.10. 14:00 13.1° C wolkenlos
Ortszeit Temperatur Wetter
Mo, 14.10. 10:30 14.4° C wolkenlos
Mo, 14.10. 10:20 14.4° C wolkenlos
Mo, 14.10. 10:10 14.2° C wolkenlos
Mo, 14.10. 10:00 13.3° C leicht bewölkt
Mo, 14.10. 9:50 13.3° C leicht bewölkt
Mo, 14.10. 9:40 12.9° C wolkig
Mo, 14.10. 9:30 12.4° C leicht bewölkt
Mo, 14.10. 9:00 12.0° C wolkig
Mo, 14.10. 8:30 11.7° C bedeckt
Mo, 14.10. 8:00 11.7° C fast wolkenlos
Mo, 14.10. 7:30 11.1° C wolkenlos
Mo, 14.10. 7:00 11.1° C wolkenlos
Ortszeit Relative Feuchte Sichtweite
Mo, 14.10. 8:00 87% 40 km
Mo, 14.10. 2:00 83% 40 km
So, 13.10. 20:00 70% 50 km
So, 13.10. 14:00 66% 40 km
So, 13.10. 8:00 94% 2.8 km
So, 13.10. 2:00 85% 40 km
Sa, 12.10. 20:00 79% 50 km
Sa, 12.10. 14:00 71% 60 km
Ortszeit Relative Feuchte Sichtweite
Mo, 14.10. 10:30 73% 45 km
Mo, 14.10. 10:20 73% -
Mo, 14.10. 10:10 75% -
Mo, 14.10. 10:00 79% 45 km
Mo, 14.10. 9:50 79% -
Mo, 14.10. 9:40 80% -
Mo, 14.10. 9:30 85% 35 km
Mo, 14.10. 9:00 86% 35 km
Mo, 14.10. 8:30 87% 35 km
Mo, 14.10. 8:00 87% 40 km
Mo, 14.10. 7:30 90% 30 km
Mo, 14.10. 7:00 90% 30 km
Ortszeit Niederschlagsmenge Niederschlagsart
Mo, 14.10. 8:00 0.0 l/m2 in 12 Std. -
Mo, 14.10. 2:00 0.0 l/m2 in 6 Std. -
So, 13.10. 20:00 0.0 l/m2 in 12 Std. -
So, 13.10. 14:00 0.0 l/m2 in 6 Std. -
So, 13.10. 8:00 0.3 l/m2 in 12 Std. Regen
So, 13.10. 2:00 0.1 l/m2 in 6 Std. Regen
Sa, 12.10. 20:00 0.1 l/m2 in 12 Std. Regen
Sa, 12.10. 14:00 0.0 l/m2 in 6 Std. -
Ortszeit Niederschlagsmenge Niederschlagsart
Mo, 14.10. 10:30 0.0 l/m2 in 1 Std. -
Mo, 14.10. 10:20 keine Meldung -
Mo, 14.10. 10:10 keine Meldung -
Mo, 14.10. 10:00 0.0 l/m2 in 1 Std. -
Mo, 14.10. 9:50 keine Meldung -
Mo, 14.10. 9:40 keine Meldung -
Mo, 14.10. 9:30 0.0 l/m2 in 1 Std. -
Mo, 14.10. 9:00 0.0 l/m2 in 1 Std. -
Mo, 14.10. 8:30 0.0 l/m2 in 1 Std. -
Mo, 14.10. 8:00 0.0 l/m2 in 1 Std. -
Mo, 14.10. 7:30 0.0 l/m2 in 1 Std. -
Mo, 14.10. 7:00 0.0 l/m2 in 1 Std. -
Ortszeit Stärke Spitze Richtung
km/h Bft. km/h Grad Sektor
Mo, 14.10. 8:00 7 2 32 210° SW
Mo, 14.10. 2:00 17 3 52 230° SW
So, 13.10. 20:00 28 4 59 200° S
So, 13.10. 14:00 18 3 40 210° SW
So, 13.10. 8:00 25 4 47 220° SW
So, 13.10. 2:00 18 3 54 210° SW
Sa, 12.10. 20:00 28 4 61 220° SW
Sa, 12.10. 14:00 39 6 65 220° SW
Ortszeit Stärke Spitze Richtung
km/h Bft. km/h Grad Sektor
Mo, 14.10. 10:30 11 2 22 220° SW
Mo, 14.10. 10:20 11 2 - 220° SW
Mo, 14.10. 10:10 13 3 - 220° SW
Mo, 14.10. 10:00 11 2 18 230° SW
Mo, 14.10. 9:50 11 2 - 230° SW
Mo, 14.10. 9:40 11 2 - 220° SW
Mo, 14.10. 9:30 13 3 19 220° SW
Mo, 14.10. 9:00 14 3 18 210° SW
Mo, 14.10. 8:30 11 2 14 230° SW
Mo, 14.10. 8:00 7 2 14 210° SW
Mo, 14.10. 7:30 9 2 13 220° SW
Mo, 14.10. 7:00 9 2 17 220° SW
Ortszeit Untergrenze Bedeckung Gattung
total tief tief mittel hoch
Mo, 14.10. 8:00 7200 m 1/8 0/8 - - -
Mo, 14.10. 2:00 - 0/8 0/8 - - -
So, 13.10. 20:00 - 0/8 0/8 - - -
So, 13.10. 14:00 5400 m 6/8 6/8 - - -
So, 13.10. 8:00 30 m 8/8 8/8 - - -
So, 13.10. 2:00 540 m 1/8 1/8 - - -
Sa, 12.10. 20:00 1500 m 7/8 7/8 - - -
Sa, 12.10. 14:00 - 0/8 0/8 - - -
Ortszeit Bedeckungsgrad in Achtel und Wolkenuntergrenze
Mo, 14.10. 10:30 keine Wolken
Mo, 14.10. 10:20 keine Wolken
Mo, 14.10. 10:10 keine Wolken
Mo, 14.10. 10:00 4(6000m)
Mo, 14.10. 9:50 4(6000m)
Mo, 14.10. 9:40 6(6000m)
Mo, 14.10. 9:30 1(6000m) 4(8700m)
Mo, 14.10. 9:00 5(6000m) 8(6900m)
Mo, 14.10. 8:30 8(6000m) 8(6900m)
Mo, 14.10. 8:00 1(7200m) 4(6600m) 5(7200m)
Mo, 14.10. 7:30 2(7200m)
Mo, 14.10. 7:00 keine Wolken
Ortszeit Stationsdruck (hPa) Tendenz (hPa in 3 Std.)
Mo, 14.10. 8:00 910 + 0,3
Mo, 14.10. 2:00 909 + 0,3
So, 13.10. 20:00 908 + 0,8
So, 13.10. 14:00 909 - 0,4
So, 13.10. 8:00 908 0,0
So, 13.10. 2:00 908 + 0,2
Sa, 12.10. 20:00 908 + 0,5
Sa, 12.10. 14:00 907 + 0,3
Ortszeit Stationsdruck (hPa) Tendenz (hPa in 3 Std.)
Mo, 14.10. 10:30 910 + 0,6
Mo, 14.10. 10:20 910 keine Meldung
Mo, 14.10. 10:10 910 keine Meldung
Mo, 14.10. 10:00 910 + 0,7
Mo, 14.10. 9:50 910 keine Meldung
Mo, 14.10. 9:40 910 keine Meldung
Mo, 14.10. 9:30 910 + 0,6
Mo, 14.10. 9:00 910 + 0,7
Mo, 14.10. 8:30 910 + 0,4
Mo, 14.10. 8:00 910 + 0,3
Mo, 14.10. 7:30 910 + 0,4
Mo, 14.10. 7:00 910 + 0,5
Ortszeit Schneehöhe (cm)
Mo, 14.10. 8:00 0
Mo, 14.10. 2:00 0
So, 13.10. 20:00 0
So, 13.10. 14:00 0
So, 13.10. 8:00 0
So, 13.10. 2:00 0
Sa, 12.10. 20:00 0
Sa, 12.10. 14:00 0
Ortszeit Schneehöhe (cm)
Mo, 14.10. 10:30 0
Mo, 14.10. 10:20 0
Mo, 14.10. 10:10 0
Mo, 14.10. 10:00 0
Mo, 14.10. 9:50 0
Mo, 14.10. 9:40 0
Mo, 14.10. 9:30 0
Mo, 14.10. 9:00 0
Mo, 14.10. 8:30 0
Mo, 14.10. 8:00 0
Mo, 14.10. 7:30 0
Mo, 14.10. 7:00 0
Link zu dieser Seite / Seite empfehlen

Das Wetter in ...